sensor_id;sensor_type;location;lat;lon;timestamp;P1;durP1;ratioP1;P2;durP2;ratioP2
7253;SDS011;4060;49.186;9.226;2023-08-01T00:01:10;7.40;;;3.63;;
7253;SDS011;4060;49.186;9.226;2023-08-01T00:03:43;3.53;;;3.00;;
7253;SDS011;4060;49.186;9.226;2023-08-01T00:06:13;4.20;;;3.05;;
7253;SDS011;4060;49.186;9.226;2023-08-01T00:08:43;4.60;;;3.60;;
7253;SDS011;4060;49.186;9.226;2023-08-01T00:11:12;4.38;;;3.38;;
7253;SDS011;4060;49.186;9.226;2023-08-01T00:13:42;4.50;;;3.10;;
7253;SDS011;4060;49.186;9.226;2023-08-01T00:16:11;4.53;;;3.13;;
7253;SDS011;4060;49.186;9.226;2023-08-01T00:18:43;5.07;;;3.33;;
7253;SDS011;4060;49.186;9.226;2023-08-01T00:21:13;3.40;;;2.90;;
7253;SDS011;4060;49.186;9.226;2023-08-01T00:23:42;4.32;;;3.22;;
7253;SDS011;4060;49.186;9.226;2023-08-01T00:26:13;3.97;;;3.13;;
7253;SDS011;4060;49.186;9.226;2023-08-01T00:28:43;4.28;;;3.22;;
7253;SDS011;4060;49.186;9.226;2023-08-01T00:31:12;4.72;;;3.47;;
7253;SDS011;4060;49.186;9.226;2023-08-01T00:33:44;4.05;;;3.15;;
7253;SDS011;4060;49.186;9.226;2023-08-01T00:36:13;4.60;;;3.30;;
7253;SDS011;4060;49.186;9.226;2023-08-01T00:38:43;4.50;;;3.42;;
7253;SDS011;4060;49.186;9.226;2023-08-01T00:41:15;5.78;;;3.38;;
7253;SDS011;4060;49.186;9.226;2023-08-01T00:43:44;4.10;;;3.40;;
7253;SDS011;4060;49.186;9.226;2023-08-01T00:46:13;3.53;;;2.92;;
7253;SDS011;4060;49.186;9.226;2023-08-01T00:48:45;5.15;;;3.70;;
7253;SDS011;4060;49.186;9.226;2023-08-01T00:51:14;5.55;;;3.33;;
7253;SDS011;4060;49.186;9.226;2023-08-01T00:53:44;5.93;;;3.25;;
7253;SDS011;4060;49.186;9.226;2023-08-01T00:56:14;4.85;;;3.45;;
7253;SDS011;4060;49.186;9.226;2023-08-01T00:58:44;4.18;;;3.08;;
7253;SDS011;4060;49.186;9.226;2023-08-01T01:01:14;4.93;;;3.25;;
7253;SDS011;4060;49.186;9.226;2023-08-01T01:03:45;3.75;;;3.00;;
7253;SDS011;4060;49.186;9.226;2023-08-01T01:06:14;4.72;;;3.25;;
7253;SDS011;4060;49.186;9.226;2023-08-01T01:08:49;3.67;;;3.22;;
7253;SDS011;4060;49.186;9.226;2023-08-01T01:11:20;4.63;;;2.92;;
7253;SDS011;4060;49.186;9.226;2023-08-01T01:13:49;5.80;;;3.30;;
7253;SDS011;4060;49.186;9.226;2023-08-01T01:16:20;5.97;;;3.50;;
7253;SDS011;4060;49.186;9.226;2023-08-01T01:18:52;3.85;;;3.35;;
7253;SDS011;4060;49.186;9.226;2023-08-01T01:21:24;4.75;;;3.30;;
7253;SDS011;4060;49.186;9.226;2023-08-01T01:23:54;3.47;;;2.78;;
7253;SDS011;4060;49.186;9.226;2023-08-01T01:26:25;3.38;;;3.08;;
7253;SDS011;4060;49.186;9.226;2023-08-01T01:28:55;5.93;;;3.15;;
7253;SDS011;4060;49.186;9.226;2023-08-01T01:31:26;3.95;;;3.22;;
7253;SDS011;4060;49.186;9.226;2023-08-01T01:33:56;5.10;;;3.70;;
7253;SDS011;4060;49.186;9.226;2023-08-01T01:36:28;5.68;;;3.42;;
7253;SDS011;4060;49.186;9.226;2023-08-01T01:38:57;5.07;;;3.35;;
7253;SDS011;4060;49.186;9.226;2023-08-01T01:41:27;6.30;;;3.60;;
7253;SDS011;4060;49.186;9.226;2023-08-01T01:43:56;3.60;;;3.30;;
7253;SDS011;4060;49.186;9.226;2023-08-01T01:46:26;4.88;;;3.35;;
7253;SDS011;4060;49.186;9.226;2023-08-01T01:48:55;4.78;;;3.50;;
7253;SDS011;4060;49.186;9.226;2023-08-01T01:51:27;4.93;;;3.38;;
7253;SDS011;4060;49.186;9.226;2023-08-01T01:53:57;7.22;;;3.45;;
7253;SDS011;4060;49.186;9.226;2023-08-01T01:56:26;3.75;;;3.42;;
7253;SDS011;4060;49.186;9.226;2023-08-01T01:58:58;3.63;;;3.00;;
7253;SDS011;4060;49.186;9.226;2023-08-01T02:01:28;3.88;;;3.53;;
7253;SDS011;4060;49.186;9.226;2023-08-01T02:03:59;4.10;;;3.42;;
7253;SDS011;4060;49.186;9.226;2023-08-01T02:06:32;7.20;;;3.65;;
7253;SDS011;4060;49.186;9.226;2023-08-01T02:09:12;4.07;;;3.28;;
7253;SDS011;4060;49.186;9.226;2023-08-01T02:11:42;5.85;;;3.47;;
7253;SDS011;4060;49.186;9.226;2023-08-01T02:14:12;4.20;;;3.65;;
7253;SDS011;4060;49.186;9.226;2023-08-01T02:16:42;5.40;;;3.35;;
7253;SDS011;4060;49.186;9.226;2023-08-01T02:19:12;6.22;;;3.88;;
7253;SDS011;4060;49.186;9.226;2023-08-01T02:21:43;4.80;;;3.35;;
7253;SDS011;4060;49.186;9.226;2023-08-01T02:24:13;4.72;;;3.60;;
7253;SDS011;4060;49.186;9.226;2023-08-01T02:26:44;5.05;;;3.60;;
7253;SDS011;4060;49.186;9.226;2023-08-01T02:29:13;4.18;;;3.78;;
7253;SDS011;4060;49.186;9.226;2023-08-01T02:31:43;3.95;;;3.60;;
7253;SDS011;4060;49.186;9.226;2023-08-01T02:34:13;4.88;;;3.58;;
7253;SDS011;4060;49.186;9.226;2023-08-01T02:36:45;4.00;;;3.38;;
7253;SDS011;4060;49.186;9.226;2023-08-01T02:39:14;4.90;;;3.03;;
7253;SDS011;4060;49.186;9.226;2023-08-01T02:41:43;4.32;;;3.33;;
7253;SDS011;4060;49.186;9.226;2023-08-01T02:44:15;5.22;;;3.42;;
7253;SDS011;4060;49.186;9.226;2023-08-01T02:46:45;4.65;;;3.60;;
7253;SDS011;4060;49.186;9.226;2023-08-01T02:49:14;4.45;;;3.55;;
7253;SDS011;4060;49.186;9.226;2023-08-01T02:51:45;7.97;;;3.58;;
7253;SDS011;4060;49.186;9.226;2023-08-01T02:54:15;4.15;;;3.38;;
7253;SDS011;4060;49.186;9.226;2023-08-01T02:56:45;4.20;;;3.47;;
7253;SDS011;4060;49.186;9.226;2023-08-01T02:59:13;5.38;;;3.25;;
7253;SDS011;4060;49.186;9.226;2023-08-01T03:01:44;5.40;;;3.40;;
7253;SDS011;4060;49.186;9.226;2023-08-01T03:04:14;4.93;;;3.42;;
7253;SDS011;4060;49.186;9.226;2023-08-01T03:06:52;4.85;;;3.72;;
7253;SDS011;4060;49.186;9.226;2023-08-01T03:09:21;3.88;;;3.28;;
7253;SDS011;4060;49.186;9.226;2023-08-01T03:11:51;4.68;;;3.80;;
7253;SDS011;4060;49.186;9.226;2023-08-01T03:14:20;5.43;;;3.63;;
7253;SDS011;4060;49.186;9.226;2023-08-01T03:16:50;4.25;;;3.40;;
7253;SDS011;4060;49.186;9.226;2023-08-01T03:19:20;4.90;;;3.72;;
7253;SDS011;4060;49.186;9.226;2023-08-01T03:21:52;5.20;;;3.70;;
7253;SDS011;4060;49.186;9.226;2023-08-01T03:24:21;4.40;;;3.70;;
7253;SDS011;4060;49.186;9.226;2023-08-01T03:26:51;4.68;;;3.83;;
7253;SDS011;4060;49.186;9.226;2023-08-01T03:29:20;5.20;;;3.90;;
7253;SDS011;4060;49.186;9.226;2023-08-01T03:31:49;4.20;;;3.22;;
7253;SDS011;4060;49.186;9.226;2023-08-01T03:34:21;3.65;;;3.35;;
7253;SDS011;4060;49.186;9.226;2023-08-01T03:36:54;4.78;;;3.67;;
7253;SDS011;4060;49.186;9.226;2023-08-01T03:39:24;5.20;;;3.67;;
7253;SDS011;4060;49.186;9.226;2023-08-01T03:41:53;4.85;;;3.70;;
7253;SDS011;4060;49.186;9.226;2023-08-01T03:44:22;4.15;;;3.40;;
7253;SDS011;4060;49.186;9.226;2023-08-01T03:46:52;4.32;;;3.10;;
7253;SDS011;4060;49.186;9.226;2023-08-01T03:49:22;4.63;;;3.50;;
7253;SDS011;4060;49.186;9.226;2023-08-01T03:51:51;4.07;;;3.63;;
7253;SDS011;4060;49.186;9.226;2023-08-01T03:54:22;5.60;;;3.53;;
7253;SDS011;4060;49.186;9.226;2023-08-01T03:56:52;4.72;;;3.85;;
7253;SDS011;4060;49.186;9.226;2023-08-01T03:59:21;4.68;;;3.42;;
7253;SDS011;4060;49.186;9.226;2023-08-01T04:01:52;5.80;;;3.67;;
7253;SDS011;4060;49.186;9.226;2023-08-01T04:04:22;5.93;;;3.30;;
7253;SDS011;4060;49.186;9.226;2023-08-01T04:06:51;5.63;;;3.80;;
7253;SDS011;4060;49.186;9.226;2023-08-01T04:09:23;5.78;;;3.72;;
7253;SDS011;4060;49.186;9.226;2023-08-01T04:11:53;4.35;;;3.60;;
7253;SDS011;4060;49.186;9.226;2023-08-01T04:14:22;3.85;;;3.33;;
7253;SDS011;4060;49.186;9.226;2023-08-01T04:16:52;5.20;;;3.65;;
7253;SDS011;4060;49.186;9.226;2023-08-01T04:19:21;4.90;;;3.88;;
7253;SDS011;4060;49.186;9.226;2023-08-01T04:21:51;4.95;;;3.78;;
7253;SDS011;4060;49.186;9.226;2023-08-01T04:24:23;4.30;;;3.75;;
7253;SDS011;4060;49.186;9.226;2023-08-01T04:26:53;3.85;;;3.45;;
7253;SDS011;4060;49.186;9.226;2023-08-01T04:29:23;4.85;;;4.22;;
7253;SDS011;4060;49.186;9.226;2023-08-01T04:31:52;5.47;;;3.90;;
7253;SDS011;4060;49.186;9.226;2023-08-01T04:34:21;4.75;;;3.72;;
7253;SDS011;4060;49.186;9.226;2023-08-01T04:36:51;5.22;;;4.15;;
7253;SDS011;4060;49.186;9.226;2023-08-01T04:39:24;5.82;;;4.28;;
7253;SDS011;4060;49.186;9.226;2023-08-01T04:41:54;5.82;;;3.83;;
7253;SDS011;4060;49.186;9.226;2023-08-01T04:44:23;5.13;;;4.40;;
7253;SDS011;4060;49.186;9.226;2023-08-01T04:46:53;4.82;;;4.10;;
7253;SDS011;4060;49.186;9.226;2023-08-01T04:49:23;4.57;;;3.80;;
7253;SDS011;4060;49.186;9.226;2023-08-01T04:51:52;3.97;;;3.25;;
7253;SDS011;4060;49.186;9.226;2023-08-01T04:54:23;5.57;;;3.90;;
7253;SDS011;4060;49.186;9.226;2023-08-01T04:56:53;4.35;;;3.47;;
7253;SDS011;4060;49.186;9.226;2023-08-01T04:59:26;7.32;;;3.53;;
7253;SDS011;4060;49.186;9.226;2023-08-01T05:01:55;5.03;;;3.65;;
7253;SDS011;4060;49.186;9.226;2023-08-01T05:04:25;7.00;;;4.07;;
7253;SDS011;4060;49.186;9.226;2023-08-01T05:06:56;4.53;;;3.78;;
7253;SDS011;4060;49.186;9.226;2023-08-01T05:09:26;4.43;;;3.72;;
7253;SDS011;4060;49.186;9.226;2023-08-01T05:11:55;4.78;;;4.18;;
7253;SDS011;4060;49.186;9.226;2023-08-01T05:14:25;4.70;;;3.90;;
7253;SDS011;4060;49.186;9.226;2023-08-01T05:16:54;5.15;;;4.03;;
7253;SDS011;4060;49.186;9.226;2023-08-01T05:19:24;5.47;;;3.55;;
7253;SDS011;4060;49.186;9.226;2023-08-01T05:21:53;4.63;;;3.60;;
7253;SDS011;4060;49.186;9.226;2023-08-01T05:24:30;5.40;;;4.03;;
7253;SDS011;4060;49.186;9.226;2023-08-01T05:26:59;4.43;;;3.50;;
7253;SDS011;4060;49.186;9.226;2023-08-01T05:29:29;5.35;;;3.50;;
7253;SDS011;4060;49.186;9.226;2023-08-01T05:31:58;4.63;;;3.67;;
7253;SDS011;4060;49.186;9.226;2023-08-01T05:34:28;5.15;;;3.78;;
7253;SDS011;4060;49.186;9.226;2023-08-01T05:37:00;4.45;;;3.42;;
7253;SDS011;4060;49.186;9.226;2023-08-01T05:39:30;4.88;;;4.03;;
7253;SDS011;4060;49.186;9.226;2023-08-01T05:41:59;6.97;;;4.00;;
7253;SDS011;4060;49.186;9.226;2023-08-01T05:44:29;4.40;;;3.60;;
7253;SDS011;4060;49.186;9.226;2023-08-01T05:46:59;5.25;;;4.18;;
7253;SDS011;4060;49.186;9.226;2023-08-01T05:49:28;4.88;;;3.78;;
7253;SDS011;4060;49.186;9.226;2023-08-01T05:51:58;6.05;;;4.00;;
7253;SDS011;4060;49.186;9.226;2023-08-01T05:54:30;6.63;;;3.85;;
7253;SDS011;4060;49.186;9.226;2023-08-01T05:56:59;7.57;;;4.30;;
7253;SDS011;4060;49.186;9.226;2023-08-01T05:59:28;4.50;;;3.63;;
7253;SDS011;4060;49.186;9.226;2023-08-01T06:01:58;5.57;;;4.00;;
7253;SDS011;4060;49.186;9.226;2023-08-01T06:04:28;7.00;;;4.25;;
7253;SDS011;4060;49.186;9.226;2023-08-01T06:06:57;6.72;;;4.10;;
7253;SDS011;4060;49.186;9.226;2023-08-01T06:09:28;6.07;;;4.13;;
7253;SDS011;4060;49.186;9.226;2023-08-01T06:11:57;4.85;;;3.65;;
7253;SDS011;4060;49.186;9.226;2023-08-01T06:14:27;6.32;;;3.85;;
7253;SDS011;4060;49.186;9.226;2023-08-01T06:16:56;5.82;;;4.35;;
7253;SDS011;4060;49.186;9.226;2023-08-01T06:19:26;6.85;;;4.45;;
7253;SDS011;4060;49.186;9.226;2023-08-01T06:21:56;7.38;;;4.35;;
7253;SDS011;4060;49.186;9.226;2023-08-01T06:24:28;5.30;;;4.32;;
7253;SDS011;4060;49.186;9.226;2023-08-01T06:26:57;4.65;;;3.80;;
7253;SDS011;4060;49.186;9.226;2023-08-01T06:29:27;7.35;;;4.43;;
7253;SDS011;4060;49.186;9.226;2023-08-01T06:31:56;5.13;;;4.03;;
7253;SDS011;4060;49.186;9.226;2023-08-01T06:34:25;5.75;;;4.32;;
7253;SDS011;4060;49.186;9.226;2023-08-01T06:36:55;6.18;;;4.60;;
7253;SDS011;4060;49.186;9.226;2023-08-01T06:39:24;6.85;;;4.15;;
7253;SDS011;4060;49.186;9.226;2023-08-01T06:41:55;7.85;;;4.40;;
7253;SDS011;4060;49.186;9.226;2023-08-01T06:44:25;8.70;;;4.50;;
7253;SDS011;4060;49.186;9.226;2023-08-01T06:46:55;8.88;;;5.18;;
7253;SDS011;4060;49.186;9.226;2023-08-01T06:49:24;6.38;;;4.43;;
7253;SDS011;4060;49.186;9.226;2023-08-01T06:51:56;8.13;;;4.20;;
7253;SDS011;4060;49.186;9.226;2023-08-01T06:54:27;5.22;;;4.00;;
7253;SDS011;4060;49.186;9.226;2023-08-01T06:56:58;6.80;;;4.13;;
7253;SDS011;4060;49.186;9.226;2023-08-01T06:59:28;6.25;;;4.45;;
7253;SDS011;4060;49.186;9.226;2023-08-01T07:01:58;8.93;;;5.03;;
7253;SDS011;4060;49.186;9.226;2023-08-01T07:04:27;8.32;;;5.07;;
7253;SDS011;4060;49.186;9.226;2023-08-01T07:06:56;6.90;;;4.68;;
7253;SDS011;4060;49.186;9.226;2023-08-01T07:09:26;7.13;;;4.82;;
7253;SDS011;4060;49.186;9.226;2023-08-01T07:11:59;7.70;;;4.57;;
7253;SDS011;4060;49.186;9.226;2023-08-01T07:14:28;7.47;;;4.60;;
7253;SDS011;4060;49.186;9.226;2023-08-01T07:16:57;7.32;;;4.93;;
7253;SDS011;4060;49.186;9.226;2023-08-01T07:19:28;5.53;;;4.60;;
7253;SDS011;4060;49.186;9.226;2023-08-01T07:21:58;10.15;;;5.10;;
7253;SDS011;4060;49.186;9.226;2023-08-01T07:24:27;5.47;;;4.18;;
7253;SDS011;4060;49.186;9.226;2023-08-01T07:26:58;7.00;;;4.28;;
7253;SDS011;4060;49.186;9.226;2023-08-01T07:29:27;5.20;;;4.13;;
7253;SDS011;4060;49.186;9.226;2023-08-01T07:31:57;5.55;;;4.18;;
7253;SDS011;4060;49.186;9.226;2023-08-01T07:34:27;5.97;;;4.25;;
7253;SDS011;4060;49.186;9.226;2023-08-01T07:36:58;6.72;;;3.80;;
7253;SDS011;4060;49.186;9.226;2023-08-01T07:39:27;5.50;;;3.53;;
7253;SDS011;4060;49.186;9.226;2023-08-01T07:42:00;4.70;;;3.83;;
7253;SDS011;4060;49.186;9.226;2023-08-01T07:44:30;5.25;;;4.10;;
7253;SDS011;4060;49.186;9.226;2023-08-01T07:47:02;4.53;;;3.30;;
7253;SDS011;4060;49.186;9.226;2023-08-01T07:49:35;4.93;;;3.47;;
7253;SDS011;4060;49.186;9.226;2023-08-01T07:52:05;4.78;;;3.83;;
7253;SDS011;4060;49.186;9.226;2023-08-01T07:54:35;5.97;;;3.88;;
7253;SDS011;4060;49.186;9.226;2023-08-01T07:57:07;3.65;;;3.28;;
7253;SDS011;4060;49.186;9.226;2023-08-01T07:59:37;4.35;;;3.95;;
7253;SDS011;4060;49.186;9.226;2023-08-01T08:02:06;5.38;;;3.70;;
7253;SDS011;4060;49.186;9.226;2023-08-01T08:04:36;5.15;;;3.92;;
7253;SDS011;4060;49.186;9.226;2023-08-01T08:07:05;4.93;;;3.70;;
7253;SDS011;4060;49.186;9.226;2023-08-01T08:09:35;4.93;;;4.00;;
7253;SDS011;4060;49.186;9.226;2023-08-01T08:12:06;6.55;;;3.78;;
7253;SDS011;4060;49.186;9.226;2023-08-01T08:14:37;5.32;;;4.13;;
7253;SDS011;4060;49.186;9.226;2023-08-01T08:17:06;6.72;;;4.35;;
7253;SDS011;4060;49.186;9.226;2023-08-01T08:19:37;5.53;;;3.28;;
7253;SDS011;4060;49.186;9.226;2023-08-01T08:22:07;4.88;;;3.88;;
7253;SDS011;4060;49.186;9.226;2023-08-01T08:24:36;5.80;;;4.20;;
7253;SDS011;4060;49.186;9.226;2023-08-01T08:27:09;5.43;;;4.10;;
7253;SDS011;4060;49.186;9.226;2023-08-01T08:29:39;4.30;;;3.83;;
7253;SDS011;4060;49.186;9.226;2023-08-01T08:32:14;4.45;;;3.83;;
7253;SDS011;4060;49.186;9.226;2023-08-01T08:34:45;4.13;;;3.70;;
7253;SDS011;4060;49.186;9.226;2023-08-01T08:37:14;7.13;;;4.45;;
7253;SDS011;4060;49.186;9.226;2023-08-01T08:39:44;4.75;;;3.83;;
7253;SDS011;4060;49.186;9.226;2023-08-01T08:42:21;4.80;;;3.63;;
7253;SDS011;4060;49.186;9.226;2023-08-01T08:44:53;4.95;;;3.80;;
7253;SDS011;4060;49.186;9.226;2023-08-01T08:47:25;4.55;;;3.60;;
7253;SDS011;4060;49.186;9.226;2023-08-01T08:49:55;4.43;;;3.55;;
7253;SDS011;4060;49.186;9.226;2023-08-01T08:52:25;4.55;;;3.53;;
7253;SDS011;4060;49.186;9.226;2023-08-01T08:54:55;4.57;;;3.70;;
7253;SDS011;4060;49.186;9.226;2023-08-01T08:57:28;4.13;;;3.55;;
7253;SDS011;4060;49.186;9.226;2023-08-01T08:59:58;5.65;;;3.88;;
7253;SDS011;4060;49.186;9.226;2023-08-01T09:02:32;3.88;;;3.42;;
7253;SDS011;4060;49.186;9.226;2023-08-01T09:05:02;4.15;;;3.75;;
7253;SDS011;4060;49.186;9.226;2023-08-01T09:07:33;4.13;;;3.70;;
7253;SDS011;4060;49.186;9.226;2023-08-01T09:10:08;4.68;;;3.58;;
7253;SDS011;4060;49.186;9.226;2023-08-01T09:12:47;4.57;;;3.88;;
7253;SDS011;4060;49.186;9.226;2023-08-01T09:15:18;4.47;;;2.85;;
7253;SDS011;4060;49.186;9.226;2023-08-01T09:17:49;4.15;;;2.53;;
7253;SDS011;4060;49.186;9.226;2023-08-01T09:20:19;2.20;;;2.00;;
7253;SDS011;4060;49.186;9.226;2023-08-01T09:22:50;3.38;;;2.05;;
7253;SDS011;4060;49.186;9.226;2023-08-01T09:25:19;2.38;;;1.73;;
7253;SDS011;4060;49.186;9.226;2023-08-01T09:28:02;1.40;;;1.30;;
7253;SDS011;4060;49.186;9.226;2023-08-01T09:30:47;1.95;;;1.30;;
7253;SDS011;4060;49.186;9.226;2023-08-01T09:33:18;1.25;;;1.00;;
7253;SDS011;4060;49.186;9.226;2023-08-01T09:35:49;1.95;;;1.33;;
7253;SDS011;4060;49.186;9.226;2023-08-01T09:38:20;1.33;;;1.05;;
7253;SDS011;4060;49.186;9.226;2023-08-01T09:40:49;2.00;;;1.67;;
7253;SDS011;4060;49.186;9.226;2023-08-01T09:43:22;2.33;;;1.17;;
7253;SDS011;4060;49.186;9.226;2023-08-01T09:45:52;1.67;;;1.10;;
7253;SDS011;4060;49.186;9.226;2023-08-01T09:48:23;1.98;;;1.30;;
7253;SDS011;4060;49.186;9.226;2023-08-01T09:51:04;1.25;;;1.15;;
7253;SDS011;4060;49.186;9.226;2023-08-01T09:53:36;1.27;;;1.17;;
7253;SDS011;4060;49.186;9.226;2023-08-01T09:56:17;1.20;;;1.10;;
7253;SDS011;4060;49.186;9.226;2023-08-01T09:58:51;2.22;;;1.30;;
7253;SDS011;4060;49.186;9.226;2023-08-01T10:01:22;1.35;;;1.25;;
7253;SDS011;4060;49.186;9.226;2023-08-01T10:03:54;1.60;;;1.40;;
7253;SDS011;4060;49.186;9.226;2023-08-01T10:06:29;1.67;;;1.52;;
7253;SDS011;4060;49.186;9.226;2023-08-01T10:09:02;1.55;;;1.13;;
7253;SDS011;4060;49.186;9.226;2023-08-01T10:11:34;2.35;;;1.40;;
7253;SDS011;4060;49.186;9.226;2023-08-01T10:14:05;1.38;;;1.27;;
7253;SDS011;4060;49.186;9.226;2023-08-01T10:16:36;1.40;;;1.30;;
7253;SDS011;4060;49.186;9.226;2023-08-01T10:19:05;1.27;;;0.90;;
7253;SDS011;4060;49.186;9.226;2023-08-01T10:21:36;1.42;;;1.33;;
7253;SDS011;4060;49.186;9.226;2023-08-01T10:24:07;1.60;;;1.20;;
7253;SDS011;4060;49.186;9.226;2023-08-01T10:26:40;1.60;;;1.50;;
7253;SDS011;4060;49.186;9.226;2023-08-01T10:29:14;1.88;;;1.45;;
7253;SDS011;4060;49.186;9.226;2023-08-01T10:31:51;1.98;;;1.35;;
7253;SDS011;4060;49.186;9.226;2023-08-01T10:34:20;1.27;;;1.17;;
7253;SDS011;4060;49.186;9.226;2023-08-01T10:36:55;1.65;;;1.00;;
7253;SDS011;4060;49.186;9.226;2023-08-01T10:39:26;2.15;;;1.17;;
7253;SDS011;4060;49.186;9.226;2023-08-01T10:41:58;1.50;;;1.40;;
7253;SDS011;4060;49.186;9.226;2023-08-01T10:44:30;2.40;;;1.40;;
7253;SDS011;4060;49.186;9.226;2023-08-01T10:47:01;1.25;;;1.15;;
7253;SDS011;4060;49.186;9.226;2023-08-01T10:49:36;1.30;;;0.98;;
7253;SDS011;4060;49.186;9.226;2023-08-01T10:52:16;1.00;;;1.00;;
7253;SDS011;4060;49.186;9.226;2023-08-01T10:54:56;1.25;;;1.15;;
7253;SDS011;4060;49.186;9.226;2023-08-01T10:57:27;0.90;;;0.90;;
7253;SDS011;4060;49.186;9.226;2023-08-01T10:59:59;1.00;;;0.88;;
7253;SDS011;4060;49.186;9.226;2023-08-01T11:02:31;1.35;;;1.25;;
7253;SDS011;4060;49.186;9.226;2023-08-01T11:05:01;1.30;;;1.20;;
7253;SDS011;4060;49.186;9.226;2023-08-01T11:07:32;1.60;;;1.13;;
7253;SDS011;4060;49.186;9.226;2023-08-01T11:10:07;0.95;;;0.93;;
7253;SDS011;4060;49.186;9.226;2023-08-01T11:12:39;1.13;;;1.00;;
7253;SDS011;4060;49.186;9.226;2023-08-01T11:15:13;1.73;;;1.17;;
7253;SDS011;4060;49.186;9.226;2023-08-01T11:17:46;1.40;;;1.30;;
7253;SDS011;4060;49.186;9.226;2023-08-01T11:20:17;4.30;;;2.08;;
7253;SDS011;4060;49.186;9.226;2023-08-01T11:22:59;2.70;;;1.80;;
7253;SDS011;4060;49.186;9.226;2023-08-01T11:25:46;3.00;;;2.17;;
7253;SDS011;4060;49.186;9.226;2023-08-01T11:28:22;2.05;;;1.25;;
7253;SDS011;4060;49.186;9.226;2023-08-01T11:30:55;1.88;;;1.20;;
7253;SDS011;4060;49.186;9.226;2023-08-01T11:33:25;2.60;;;1.30;;
7253;SDS011;4060;49.186;9.226;2023-08-01T11:35:56;2.10;;;1.35;;
7253;SDS011;4060;49.186;9.226;2023-08-01T11:38:26;3.20;;;1.40;;
7253;SDS011;4060;49.186;9.226;2023-08-01T11:40:57;2.22;;;1.20;;
7253;SDS011;4060;49.186;9.226;2023-08-01T11:43:38;5.28;;;1.70;;
7253;SDS011;4060;49.186;9.226;2023-08-01T11:46:10;3.40;;;1.60;;
7253;SDS011;4060;49.186;9.226;2023-08-01T11:48:45;2.83;;;1.73;;
7253;SDS011;4060;49.186;9.226;2023-08-01T11:51:16;1.70;;;1.60;;
7253;SDS011;4060;49.186;9.226;2023-08-01T11:53:45;1.73;;;1.63;;
7253;SDS011;4060;49.186;9.226;2023-08-01T11:56:21;2.17;;;1.40;;
7253;SDS011;4060;49.186;9.226;2023-08-01T11:58:50;1.55;;;1.45;;
7253;SDS011;4060;49.186;9.226;2023-08-01T12:01:24;2.22;;;2.03;;
7253;SDS011;4060;49.186;9.226;2023-08-01T12:03:55;2.60;;;2.03;;
7253;SDS011;4060;49.186;9.226;2023-08-01T12:06:25;1.90;;;1.80;;
7253;SDS011;4060;49.186;9.226;2023-08-01T12:09:06;2.10;;;1.80;;
7253;SDS011;4060;49.186;9.226;2023-08-01T12:11:38;1.52;;;1.40;;
7253;SDS011;4060;49.186;9.226;2023-08-01T12:14:09;2.25;;;1.85;;
7253;SDS011;4060;49.186;9.226;2023-08-01T12:16:42;2.55;;;1.50;;
7253;SDS011;4060;49.186;9.226;2023-08-01T12:19:16;1.60;;;1.50;;
7253;SDS011;4060;49.186;9.226;2023-08-01T12:21:49;1.60;;;1.50;;
7253;SDS011;4060;49.186;9.226;2023-08-01T12:24:19;2.00;;;1.35;;
7253;SDS011;4060;49.186;9.226;2023-08-01T12:26:48;1.33;;;1.00;;
7253;SDS011;4060;49.186;9.226;2023-08-01T12:29:18;2.20;;;1.42;;
7253;SDS011;4060;49.186;9.226;2023-08-01T12:31:51;1.42;;;1.33;;
7253;SDS011;4060;49.186;9.226;2023-08-01T12:34:20;2.30;;;1.48;;
7253;SDS011;4060;49.186;9.226;2023-08-01T12:36:50;1.42;;;1.27;;
7253;SDS011;4060;49.186;9.226;2023-08-01T12:39:21;1.40;;;1.25;;
7253;SDS011;4060;49.186;9.226;2023-08-01T12:41:52;1.63;;;1.50;;
7253;SDS011;4060;49.186;9.226;2023-08-01T12:44:21;3.75;;;1.20;;
7253;SDS011;4060;49.186;9.226;2023-08-01T12:46:52;1.60;;;1.08;;
7253;SDS011;4060;49.186;9.226;2023-08-01T12:49:21;2.47;;;1.30;;
7253;SDS011;4060;49.186;9.226;2023-08-01T12:51:51;2.85;;;1.50;;
7253;SDS011;4060;49.186;9.226;2023-08-01T12:54:23;2.72;;;1.35;;
7253;SDS011;4060;49.186;9.226;2023-08-01T12:56:54;1.52;;;1.13;;
7253;SDS011;4060;49.186;9.226;2023-08-01T12:59:24;1.40;;;1.02;;
7253;SDS011;4060;49.186;9.226;2023-08-01T13:01:57;1.95;;;1.25;;
7253;SDS011;4060;49.186;9.226;2023-08-01T13:04:27;1.80;;;1.40;;
7253;SDS011;4060;49.186;9.226;2023-08-01T13:06:57;2.90;;;1.10;;
7253;SDS011;4060;49.186;9.226;2023-08-01T13:09:26;1.65;;;1.40;;
7253;SDS011;4060;49.186;9.226;2023-08-01T13:11:57;2.03;;;1.55;;
7253;SDS011;4060;49.186;9.226;2023-08-01T13:14:27;1.33;;;1.23;;
7253;SDS011;4060;49.186;9.226;2023-08-01T13:16:59;1.83;;;1.20;;
7253;SDS011;4060;49.186;9.226;2023-08-01T13:19:30;2.42;;;1.30;;
7253;SDS011;4060;49.186;9.226;2023-08-01T13:22:04;1.33;;;1.17;;
7253;SDS011;4060;49.186;9.226;2023-08-01T13:24:34;2.65;;;1.50;;
7253;SDS011;4060;49.186;9.226;2023-08-01T13:27:04;1.35;;;1.23;;
7253;SDS011;4060;49.186;9.226;2023-08-01T13:29:35;3.22;;;1.27;;
7253;SDS011;4060;49.186;9.226;2023-08-01T13:32:08;1.67;;;1.40;;
7253;SDS011;4060;49.186;9.226;2023-08-01T13:34:38;5.43;;;1.60;;
7253;SDS011;4060;49.186;9.226;2023-08-01T13:37:08;2.28;;;1.10;;
7253;SDS011;4060;49.186;9.226;2023-08-01T13:39:39;1.30;;;1.20;;
7253;SDS011;4060;49.186;9.226;2023-08-01T13:42:09;1.88;;;0.93;;
7253;SDS011;4060;49.186;9.226;2023-08-01T13:44:39;4.20;;;1.20;;
7253;SDS011;4060;49.186;9.226;2023-08-01T13:47:12;2.88;;;1.10;;
7253;SDS011;4060;49.186;9.226;2023-08-01T13:49:52;1.38;;;1.23;;
7253;SDS011;4060;49.186;9.226;2023-08-01T13:52:23;1.52;;;0.93;;
7253;SDS011;4060;49.186;9.226;2023-08-01T13:54:53;1.77;;;1.02;;
7253;SDS011;4060;49.186;9.226;2023-08-01T13:57:25;2.47;;;1.00;;
7253;SDS011;4060;49.186;9.226;2023-08-01T13:59:55;1.30;;;1.20;;
7253;SDS011;4060;49.186;9.226;2023-08-01T14:02:29;4.88;;;1.30;;
7253;SDS011;4060;49.186;9.226;2023-08-01T14:04:59;2.05;;;1.33;;
7253;SDS011;4060;49.186;9.226;2023-08-01T14:07:30;2.40;;;1.17;;
7253;SDS011;4060;49.186;9.226;2023-08-01T14:10:03;1.52;;;1.35;;
7253;SDS011;4060;49.186;9.226;2023-08-01T14:12:34;1.67;;;1.23;;
7253;SDS011;4060;49.186;9.226;2023-08-01T14:15:04;1.40;;;1.10;;
7253;SDS011;4060;49.186;9.226;2023-08-01T14:17:38;2.00;;;1.08;;
7253;SDS011;4060;49.186;9.226;2023-08-01T14:20:07;1.90;;;1.10;;
7253;SDS011;4060;49.186;9.226;2023-08-01T14:22:38;1.58;;;1.20;;
7253;SDS011;4060;49.186;9.226;2023-08-01T14:25:10;2.53;;;1.30;;
7253;SDS011;4060;49.186;9.226;2023-08-01T14:27:39;1.65;;;1.02;;
7253;SDS011;4060;49.186;9.226;2023-08-01T14:30:11;1.50;;;1.13;;
7253;SDS011;4060;49.186;9.226;2023-08-01T14:32:43;1.73;;;1.25;;
7253;SDS011;4060;49.186;9.226;2023-08-01T14:35:13;1.27;;;1.00;;
7253;SDS011;4060;49.186;9.226;2023-08-01T14:37:43;1.58;;;1.30;;
7253;SDS011;4060;49.186;9.226;2023-08-01T14:40:14;1.67;;;1.10;;
7253;SDS011;4060;49.186;9.226;2023-08-01T14:42:43;1.60;;;1.23;;
7253;SDS011;4060;49.186;9.226;2023-08-01T14:45:13;1.85;;;1.05;;
7253;SDS011;4060;49.186;9.226;2023-08-01T14:47:50;2.17;;;1.10;;
7253;SDS011;4060;49.186;9.226;2023-08-01T14:50:21;2.10;;;1.30;;
7253;SDS011;4060;49.186;9.226;2023-08-01T14:52:51;1.50;;;1.27;;
7253;SDS011;4060;49.186;9.226;2023-08-01T14:55:21;1.60;;;1.10;;
7253;SDS011;4060;49.186;9.226;2023-08-01T14:57:52;3.15;;;1.40;;
7253;SDS011;4060;49.186;9.226;2023-08-01T15:00:22;2.40;;;1.10;;
7253;SDS011;4060;49.186;9.226;2023-08-01T15:02:54;1.55;;;1.23;;
7253;SDS011;4060;49.186;9.226;2023-08-01T15:05:24;2.72;;;1.48;;
7253;SDS011;4060;49.186;9.226;2023-08-01T15:07:54;1.92;;;1.13;;
7253;SDS011;4060;49.186;9.226;2023-08-01T15:10:26;1.83;;;1.33;;
7253;SDS011;4060;49.186;9.226;2023-08-01T15:12:57;1.50;;;1.10;;
7253;SDS011;4060;49.186;9.226;2023-08-01T15:15:29;2.17;;;1.30;;
7253;SDS011;4060;49.186;9.226;2023-08-01T15:18:07;2.67;;;1.25;;
7253;SDS011;4060;49.186;9.226;2023-08-01T15:20:38;3.65;;;1.50;;
7253;SDS011;4060;49.186;9.226;2023-08-01T15:23:08;3.15;;;1.30;;
7253;SDS011;4060;49.186;9.226;2023-08-01T15:25:38;2.40;;;0.90;;
7253;SDS011;4060;49.186;9.226;2023-08-01T15:28:10;1.75;;;1.10;;
7253;SDS011;4060;49.186;9.226;2023-08-01T15:30:40;1.15;;;0.93;;
7253;SDS011;4060;49.186;9.226;2023-08-01T15:33:12;1.90;;;1.23;;
7253;SDS011;4060;49.186;9.226;2023-08-01T15:35:41;1.77;;;1.02;;
7253;SDS011;4060;49.186;9.226;2023-08-01T15:38:11;0.80;;;0.80;;